sensor_id;sensor_type;location;lat;lon;timestamp;temperature;humidity
24450;DHT22;13349;50.984;5.822;2023-05-10T00:01:12;13.00;99.90
24450;DHT22;13349;50.984;5.822;2023-05-10T00:03:39;13.00;99.90
24450;DHT22;13349;50.984;5.822;2023-05-10T00:06:06;13.00;99.90
24450;DHT22;13349;50.984;5.822;2023-05-10T00:08:33;12.90;99.90
24450;DHT22;13349;50.984;5.822;2023-05-10T00:11:00;12.90;99.90
24450;DHT22;13349;50.984;5.822;2023-05-10T00:13:27;12.90;99.90
24450;DHT22;13349;50.984;5.822;2023-05-10T00:15:54;12.90;99.90
24450;DHT22;13349;50.984;5.822;2023-05-10T00:18:22;12.90;99.90
24450;DHT22;13349;50.984;5.822;2023-05-10T00:20:49;12.90;99.90
24450;DHT22;13349;50.984;5.822;2023-05-10T00:23:16;12.90;99.90
24450;DHT22;13349;50.984;5.822;2023-05-10T00:25:43;12.90;99.90
24450;DHT22;13349;50.984;5.822;2023-05-10T00:28:10;12.90;99.90
24450;DHT22;13349;50.984;5.822;2023-05-10T00:30:37;12.90;99.90
24450;DHT22;13349;50.984;5.822;2023-05-10T00:33:04;12.90;99.90
24450;DHT22;13349;50.984;5.822;2023-05-10T00:35:32;12.90;99.90
24450;DHT22;13349;50.984;5.822;2023-05-10T00:37:59;12.90;99.90
24450;DHT22;13349;50.984;5.822;2023-05-10T00:40:26;12.90;99.90
24450;DHT22;13349;50.984;5.822;2023-05-10T00:42:54;12.90;99.90
24450;DHT22;13349;50.984;5.822;2023-05-10T00:45:21;12.90;99.90
24450;DHT22;13349;50.984;5.822;2023-05-10T00:47:47;12.90;99.90
24450;DHT22;13349;50.984;5.822;2023-05-10T00:50:14;12.90;99.90
24450;DHT22;13349;50.984;5.822;2023-05-10T00:52:43;12.90;99.90
24450;DHT22;13349;50.984;5.822;2023-05-10T00:55:10;12.90;99.90
24450;DHT22;13349;50.984;5.822;2023-05-10T00:57:38;12.90;99.90
24450;DHT22;13349;50.984;5.822;2023-05-10T01:00:05;13.00;99.90
24450;DHT22;13349;50.984;5.822;2023-05-10T01:02:33;13.00;99.90
24450;DHT22;13349;50.984;5.822;2023-05-10T01:05:00;13.00;99.90
24450;DHT22;13349;50.984;5.822;2023-05-10T01:07:28;13.00;99.90
24450;DHT22;13349;50.984;5.822;2023-05-10T01:09:57;13.00;99.90
24450;DHT22;13349;50.984;5.822;2023-05-10T01:12:24;13.00;99.90
24450;DHT22;13349;50.984;5.822;2023-05-10T01:14:51;13.00;99.90
24450;DHT22;13349;50.984;5.822;2023-05-10T01:17:18;13.00;99.90
24450;DHT22;13349;50.984;5.822;2023-05-10T01:19:46;13.10;99.90
24450;DHT22;13349;50.984;5.822;2023-05-10T01:22:17;13.10;99.90
24450;DHT22;13349;50.984;5.822;2023-05-10T01:30:50;13.00;99.90
24450;DHT22;13349;50.984;5.822;2023-05-10T01:33:20;13.00;99.90
24450;DHT22;13349;50.984;5.822;2023-05-10T01:35:51;13.00;99.90
24450;DHT22;13349;50.984;5.822;2023-05-10T01:38:22;13.00;99.90
24450;DHT22;13349;50.984;5.822;2023-05-10T01:40:52;12.90;99.90
24450;DHT22;13349;50.984;5.822;2023-05-10T01:43:24;13.00;99.90
24450;DHT22;13349;50.984;5.822;2023-05-10T01:45:56;13.00;99.90
24450;DHT22;13349;50.984;5.822;2023-05-10T01:48:26;12.90;99.90
24450;DHT22;13349;50.984;5.822;2023-05-10T01:50:54;12.90;99.90
24450;DHT22;13349;50.984;5.822;2023-05-10T01:53:22;12.90;99.90
24450;DHT22;13349;50.984;5.822;2023-05-10T01:55:51;12.90;99.90
24450;DHT22;13349;50.984;5.822;2023-05-10T01:58:20;12.90;99.90
24450;DHT22;13349;50.984;5.822;2023-05-10T02:00:47;12.90;99.90
24450;DHT22;13349;50.984;5.822;2023-05-10T02:03:16;12.90;99.90
24450;DHT22;13349;50.984;5.822;2023-05-10T02:05:45;12.90;99.90
24450;DHT22;13349;50.984;5.822;2023-05-10T02:08:13;12.90;99.90
24450;DHT22;13349;50.984;5.822;2023-05-10T02:10:41;12.90;99.90
24450;DHT22;13349;50.984;5.822;2023-05-10T02:13:09;12.90;99.90
24450;DHT22;13349;50.984;5.822;2023-05-10T02:15:37;12.90;99.90
24450;DHT22;13349;50.984;5.822;2023-05-10T02:18:04;12.80;99.90
24450;DHT22;13349;50.984;5.822;2023-05-10T02:20:31;12.80;99.90
24450;DHT22;13349;50.984;5.822;2023-05-10T02:23:00;12.80;99.90
24450;DHT22;13349;50.984;5.822;2023-05-10T02:25:28;12.80;99.90
24450;DHT22;13349;50.984;5.822;2023-05-10T02:27:56;12.80;99.90
24450;DHT22;13349;50.984;5.822;2023-05-10T02:30:24;12.80;99.90
24450;DHT22;13349;50.984;5.822;2023-05-10T02:32:51;12.80;99.90
24450;DHT22;13349;50.984;5.822;2023-05-10T02:35:18;12.80;99.90
24450;DHT22;13349;50.984;5.822;2023-05-10T02:37:45;12.70;99.90
24450;DHT22;13349;50.984;5.822;2023-05-10T02:40:14;12.70;99.90
24450;DHT22;13349;50.984;5.822;2023-05-10T02:42:42;12.70;99.90
24450;DHT22;13349;50.984;5.822;2023-05-10T02:45:11;12.70;99.90
24450;DHT22;13349;50.984;5.822;2023-05-10T02:47:38;12.70;99.90
24450;DHT22;13349;50.984;5.822;2023-05-10T02:50:05;12.60;99.90
24450;DHT22;13349;50.984;5.822;2023-05-10T02:52:36;12.60;99.90
24450;DHT22;13349;50.984;5.822;2023-05-10T02:55:04;12.60;99.90
24450;DHT22;13349;50.984;5.822;2023-05-10T02:57:33;12.60;99.90
24450;DHT22;13349;50.984;5.822;2023-05-10T03:00:00;12.60;99.90
24450;DHT22;13349;50.984;5.822;2023-05-10T03:02:28;12.60;99.90
24450;DHT22;13349;50.984;5.822;2023-05-10T03:04:56;12.60;99.90
24450;DHT22;13349;50.984;5.822;2023-05-10T03:07:23;12.60;99.90
24450;DHT22;13349;50.984;5.822;2023-05-10T03:09:50;12.50;99.90
24450;DHT22;13349;50.984;5.822;2023-05-10T03:12:19;12.50;99.90
24450;DHT22;13349;50.984;5.822;2023-05-10T03:14:56;12.60;99.90
24450;DHT22;13349;50.984;5.822;2023-05-10T03:17:39;12.60;99.90
24450;DHT22;13349;50.984;5.822;2023-05-10T03:20:08;12.60;99.90
24450;DHT22;13349;50.984;5.822;2023-05-10T03:22:37;12.60;99.90
24450;DHT22;13349;50.984;5.822;2023-05-10T03:25:05;12.60;99.90
24450;DHT22;13349;50.984;5.822;2023-05-10T03:27:33;12.60;99.90
24450;DHT22;13349;50.984;5.822;2023-05-10T03:30:04;12.60;99.90
24450;DHT22;13349;50.984;5.822;2023-05-10T03:32:31;12.50;99.90
24450;DHT22;13349;50.984;5.822;2023-05-10T03:35:00;12.50;99.90
24450;DHT22;13349;50.984;5.822;2023-05-10T03:37:27;12.50;99.90
24450;DHT22;13349;50.984;5.822;2023-05-10T03:39:54;12.50;99.90
24450;DHT22;13349;50.984;5.822;2023-05-10T03:42:21;12.50;99.90
24450;DHT22;13349;50.984;5.822;2023-05-10T03:44:48;12.60;99.90
24450;DHT22;13349;50.984;5.822;2023-05-10T03:47:17;12.60;99.90
24450;DHT22;13349;50.984;5.822;2023-05-10T03:49:44;12.50;99.90
24450;DHT22;13349;50.984;5.822;2023-05-10T03:52:10;12.50;99.90
24450;DHT22;13349;50.984;5.822;2023-05-10T03:54:37;12.50;99.90
24450;DHT22;13349;50.984;5.822;2023-05-10T03:57:04;12.50;99.90
24450;DHT22;13349;50.984;5.822;2023-05-10T03:59:31;12.50;99.90
24450;DHT22;13349;50.984;5.822;2023-05-10T04:01:58;12.50;99.90
24450;DHT22;13349;50.984;5.822;2023-05-10T04:04:27;12.50;99.90
24450;DHT22;13349;50.984;5.822;2023-05-10T04:06:54;12.50;99.90
24450;DHT22;13349;50.984;5.822;2023-05-10T04:09:21;12.50;99.90
24450;DHT22;13349;50.984;5.822;2023-05-10T04:11:48;12.50;99.90
24450;DHT22;13349;50.984;5.822;2023-05-10T04:14:15;12.50;99.90
24450;DHT22;13349;50.984;5.822;2023-05-10T04:16:42;12.50;99.90
24450;DHT22;13349;50.984;5.822;2023-05-10T04:19:09;12.50;99.90
24450;DHT22;13349;50.984;5.822;2023-05-10T04:21:37;12.50;99.90
24450;DHT22;13349;50.984;5.822;2023-05-10T04:24:04;12.50;99.90
24450;DHT22;13349;50.984;5.822;2023-05-10T04:26:31;12.50;99.90
24450;DHT22;13349;50.984;5.822;2023-05-10T04:28:58;12.50;99.90
24450;DHT22;13349;50.984;5.822;2023-05-10T04:31:25;12.50;99.90
24450;DHT22;13349;50.984;5.822;2023-05-10T04:33:53;12.50;99.90
24450;DHT22;13349;50.984;5.822;2023-05-10T04:36:20;12.50;99.90
24450;DHT22;13349;50.984;5.822;2023-05-10T04:38:48;12.60;99.90
24450;DHT22;13349;50.984;5.822;2023-05-10T04:41:15;12.50;99.90
24450;DHT22;13349;50.984;5.822;2023-05-10T04:43:42;12.60;99.90
24450;DHT22;13349;50.984;5.822;2023-05-10T04:46:09;12.60;99.90
24450;DHT22;13349;50.984;5.822;2023-05-10T04:48:35;12.60;99.90
24450;DHT22;13349;50.984;5.822;2023-05-10T04:51:02;12.60;99.90
24450;DHT22;13349;50.984;5.822;2023-05-10T04:53:30;12.60;99.90
24450;DHT22;13349;50.984;5.822;2023-05-10T04:55:58;12.60;99.90
24450;DHT22;13349;50.984;5.822;2023-05-10T04:58:25;12.60;99.90
24450;DHT22;13349;50.984;5.822;2023-05-10T05:00:52;12.70;99.90
24450;DHT22;13349;50.984;5.822;2023-05-10T05:03:19;12.70;99.90
24450;DHT22;13349;50.984;5.822;2023-05-10T05:05:45;12.70;99.90
24450;DHT22;13349;50.984;5.822;2023-05-10T05:08:12;12.60;99.90
24450;DHT22;13349;50.984;5.822;2023-05-10T05:10:39;12.70;99.90
24450;DHT22;13349;50.984;5.822;2023-05-10T05:13:08;12.70;99.90
24450;DHT22;13349;50.984;5.822;2023-05-10T05:15:34;12.70;99.90
24450;DHT22;13349;50.984;5.822;2023-05-10T05:18:01;12.80;99.90
24450;DHT22;13349;50.984;5.822;2023-05-10T05:20:31;12.80;99.90
24450;DHT22;13349;50.984;5.822;2023-05-10T05:22:58;12.80;99.90
24450;DHT22;13349;50.984;5.822;2023-05-10T05:25:25;12.80;99.90
24450;DHT22;13349;50.984;5.822;2023-05-10T05:27:52;12.90;99.90
24450;DHT22;13349;50.984;5.822;2023-05-10T05:30:20;12.80;99.90
24450;DHT22;13349;50.984;5.822;2023-05-10T05:32:47;12.80;99.90
24450;DHT22;13349;50.984;5.822;2023-05-10T05:35:14;12.80;99.90
24450;DHT22;13349;50.984;5.822;2023-05-10T05:37:41;12.80;99.90
24450;DHT22;13349;50.984;5.822;2023-05-10T05:40:08;12.80;99.90
24450;DHT22;13349;50.984;5.822;2023-05-10T05:42:38;12.80;99.90
24450;DHT22;13349;50.984;5.822;2023-05-10T05:45:06;12.80;99.90
24450;DHT22;13349;50.984;5.822;2023-05-10T05:47:35;12.80;99.90
24450;DHT22;13349;50.984;5.822;2023-05-10T05:50:02;12.90;99.90
24450;DHT22;13349;50.984;5.822;2023-05-10T05:52:30;12.80;99.90
24450;DHT22;13349;50.984;5.822;2023-05-10T05:54:57;12.80;99.90
24450;DHT22;13349;50.984;5.822;2023-05-10T05:57:24;12.80;99.90
24450;DHT22;13349;50.984;5.822;2023-05-10T05:59:52;12.90;99.90
24450;DHT22;13349;50.984;5.822;2023-05-10T06:02:19;12.90;99.90
24450;DHT22;13349;50.984;5.822;2023-05-10T06:04:47;12.90;99.90
24450;DHT22;13349;50.984;5.822;2023-05-10T06:07:14;13.00;99.90
24450;DHT22;13349;50.984;5.822;2023-05-10T06:09:41;13.00;99.90
24450;DHT22;13349;50.984;5.822;2023-05-10T06:12:08;13.10;99.90
24450;DHT22;13349;50.984;5.822;2023-05-10T06:14:35;13.10;99.90
24450;DHT22;13349;50.984;5.822;2023-05-10T06:17:02;13.10;99.90
24450;DHT22;13349;50.984;5.822;2023-05-10T06:19:30;13.10;99.90
24450;DHT22;13349;50.984;5.822;2023-05-10T06:21:58;13.00;99.90
24450;DHT22;13349;50.984;5.822;2023-05-10T06:24:25;13.10;99.90
24450;DHT22;13349;50.984;5.822;2023-05-10T06:26:53;13.00;99.90
24450;DHT22;13349;50.984;5.822;2023-05-10T06:29:19;13.00;99.90
24450;DHT22;13349;50.984;5.822;2023-05-10T06:31:46;13.10;99.90
24450;DHT22;13349;50.984;5.822;2023-05-10T06:34:13;13.10;99.90
24450;DHT22;13349;50.984;5.822;2023-05-10T06:36:40;13.00;99.90
24450;DHT22;13349;50.984;5.822;2023-05-10T06:39:09;12.90;99.90
24450;DHT22;13349;50.984;5.822;2023-05-10T06:41:37;12.90;99.90
24450;DHT22;13349;50.984;5.822;2023-05-10T06:44:04;12.90;99.90
24450;DHT22;13349;50.984;5.822;2023-05-10T06:46:31;12.90;99.90
24450;DHT22;13349;50.984;5.822;2023-05-10T06:48:57;13.00;99.90
24450;DHT22;13349;50.984;5.822;2023-05-10T06:51:24;13.00;99.90
24450;DHT22;13349;50.984;5.822;2023-05-10T06:53:51;13.00;99.90
24450;DHT22;13349;50.984;5.822;2023-05-10T06:56:20;13.00;99.90
24450;DHT22;13349;50.984;5.822;2023-05-10T06:58:47;13.10;99.90
24450;DHT22;13349;50.984;5.822;2023-05-10T07:01:14;13.10;99.90
24450;DHT22;13349;50.984;5.822;2023-05-10T07:03:41;13.10;99.90
24450;DHT22;13349;50.984;5.822;2023-05-10T07:06:08;13.10;99.90
24450;DHT22;13349;50.984;5.822;2023-05-10T07:08:35;13.20;99.90
24450;DHT22;13349;50.984;5.822;2023-05-10T07:11:02;13.20;99.90
24450;DHT22;13349;50.984;5.822;2023-05-10T07:13:31;13.20;99.90
24450;DHT22;13349;50.984;5.822;2023-05-10T07:15:58;13.10;99.90
24450;DHT22;13349;50.984;5.822;2023-05-10T07:18:25;13.20;99.90
24450;DHT22;13349;50.984;5.822;2023-05-10T07:20:52;13.20;99.90
24450;DHT22;13349;50.984;5.822;2023-05-10T07:23:19;13.10;99.90
24450;DHT22;13349;50.984;5.822;2023-05-10T07:25:46;12.90;99.90
24450;DHT22;13349;50.984;5.822;2023-05-10T07:28:13;12.90;99.90
24450;DHT22;13349;50.984;5.822;2023-05-10T07:30:42;12.90;99.90
24450;DHT22;13349;50.984;5.822;2023-05-10T07:33:09;12.90;99.90
24450;DHT22;13349;50.984;5.822;2023-05-10T07:35:36;12.90;99.90
24450;DHT22;13349;50.984;5.822;2023-05-10T07:38:03;13.00;99.90
24450;DHT22;13349;50.984;5.822;2023-05-10T07:40:30;13.00;99.90
24450;DHT22;13349;50.984;5.822;2023-05-10T07:42:57;13.00;99.90
24450;DHT22;13349;50.984;5.822;2023-05-10T07:45:25;12.90;99.90
24450;DHT22;13349;50.984;5.822;2023-05-10T07:47:53;12.90;99.90
24450;DHT22;13349;50.984;5.822;2023-05-10T07:50:20;13.00;99.90
24450;DHT22;13349;50.984;5.822;2023-05-10T07:52:47;12.90;99.90
24450;DHT22;13349;50.984;5.822;2023-05-10T07:55:14;12.90;99.90
24450;DHT22;13349;50.984;5.822;2023-05-10T07:57:41;13.00;99.90
24450;DHT22;13349;50.984;5.822;2023-05-10T08:00:09;13.00;99.90
24450;DHT22;13349;50.984;5.822;2023-05-10T08:02:38;13.00;99.90
24450;DHT22;13349;50.984;5.822;2023-05-10T08:05:07;13.10;99.90
24450;DHT22;13349;50.984;5.822;2023-05-10T08:07:34;13.20;99.90
24450;DHT22;13349;50.984;5.822;2023-05-10T08:10:02;13.30;99.90
24450;DHT22;13349;50.984;5.822;2023-05-10T08:12:28;13.30;99.90
24450;DHT22;13349;50.984;5.822;2023-05-10T08:14:55;13.40;99.90
24450;DHT22;13349;50.984;5.822;2023-05-10T08:17:22;13.50;99.90
24450;DHT22;13349;50.984;5.822;2023-05-10T08:19:49;13.50;99.90
24450;DHT22;13349;50.984;5.822;2023-05-10T08:22:17;13.70;99.90
24450;DHT22;13349;50.984;5.822;2023-05-10T08:24:44;13.80;99.90
24450;DHT22;13349;50.984;5.822;2023-05-10T08:27:11;13.90;99.90
24450;DHT22;13349;50.984;5.822;2023-05-10T08:29:38;13.90;99.90
24450;DHT22;13349;50.984;5.822;2023-05-10T08:32:05;13.80;99.90
24450;DHT22;13349;50.984;5.822;2023-05-10T08:34:32;13.90;99.90
24450;DHT22;13349;50.984;5.822;2023-05-10T08:36:59;13.90;99.90
24450;DHT22;13349;50.984;5.822;2023-05-10T08:39:27;14.00;99.90
24450;DHT22;13349;50.984;5.822;2023-05-10T08:41:54;14.00;99.90
24450;DHT22;13349;50.984;5.822;2023-05-10T08:44:26;14.00;99.90
24450;DHT22;13349;50.984;5.822;2023-05-10T08:46:53;14.10;99.90
24450;DHT22;13349;50.984;5.822;2023-05-10T08:49:20;14.30;99.90
24450;DHT22;13349;50.984;5.822;2023-05-10T08:51:49;14.30;99.90
24450;DHT22;13349;50.984;5.822;2023-05-10T08:54:17;14.30;99.90
24450;DHT22;13349;50.984;5.822;2023-05-10T08:56:45;14.20;99.90
24450;DHT22;13349;50.984;5.822;2023-05-10T08:59:13;14.20;99.90
24450;DHT22;13349;50.984;5.822;2023-05-10T09:01:40;14.10;99.90
24450;DHT22;13349;50.984;5.822;2023-05-10T09:04:09;14.10;99.90
24450;DHT22;13349;50.984;5.822;2023-05-10T09:06:37;14.20;99.90
24450;DHT22;13349;50.984;5.822;2023-05-10T09:09:04;14.20;99.90
24450;DHT22;13349;50.984;5.822;2023-05-10T09:11:31;14.10;99.90
24450;DHT22;13349;50.984;5.822;2023-05-10T09:14:00;14.00;99.90
24450;DHT22;13349;50.984;5.822;2023-05-10T09:16:27;14.10;99.90
24450;DHT22;13349;50.984;5.822;2023-05-10T09:18:54;14.00;99.90
24450;DHT22;13349;50.984;5.822;2023-05-10T09:21:21;14.00;99.90
24450;DHT22;13349;50.984;5.822;2023-05-10T09:23:48;13.90;99.90
24450;DHT22;13349;50.984;5.822;2023-05-10T09:26:21;13.80;99.90
24450;DHT22;13349;50.984;5.822;2023-05-10T09:28:52;13.70;99.90
24450;DHT22;13349;50.984;5.822;2023-05-10T09:31:20;13.60;99.90
24450;DHT22;13349;50.984;5.822;2023-05-10T09:33:47;13.70;99.90
24450;DHT22;13349;50.984;5.822;2023-05-10T09:36:15;13.60;99.90
24450;DHT22;13349;50.984;5.822;2023-05-10T09:38:45;13.80;99.90
24450;DHT22;13349;50.984;5.822;2023-05-10T09:41:16;14.10;99.90
24450;DHT22;13349;50.984;5.822;2023-05-10T09:43:44;14.20;99.90
24450;DHT22;13349;50.984;5.822;2023-05-10T09:46:10;14.30;99.90
24450;DHT22;13349;50.984;5.822;2023-05-10T09:48:41;14.10;99.90
24450;DHT22;13349;50.984;5.822;2023-05-10T09:51:08;13.90;99.90
24450;DHT22;13349;50.984;5.822;2023-05-10T09:53:35;14.10;99.90
24450;DHT22;13349;50.984;5.822;2023-05-10T09:56:02;14.20;99.90
24450;DHT22;13349;50.984;5.822;2023-05-10T09:58:29;14.10;99.90
24450;DHT22;13349;50.984;5.822;2023-05-10T10:00:56;14.20;99.90
24450;DHT22;13349;50.984;5.822;2023-05-10T10:03:23;14.40;99.90
24450;DHT22;13349;50.984;5.822;2023-05-10T10:05:52;14.50;99.90
24450;DHT22;13349;50.984;5.822;2023-05-10T10:08:21;14.90;99.90
24450;DHT22;13349;50.984;5.822;2023-05-10T10:10:48;15.20;99.90
24450;DHT22;13349;50.984;5.822;2023-05-10T10:13:15;15.30;99.90
24450;DHT22;13349;50.984;5.822;2023-05-10T10:15:42;15.40;99.90
24450;DHT22;13349;50.984;5.822;2023-05-10T10:18:12;15.40;99.90
24450;DHT22;13349;50.984;5.822;2023-05-10T10:20:39;15.60;99.90
24450;DHT22;13349;50.984;5.822;2023-05-10T10:23:09;15.60;99.90
24450;DHT22;13349;50.984;5.822;2023-05-10T10:25:36;15.90;99.90
24450;DHT22;13349;50.984;5.822;2023-05-10T10:28:08;16.00;99.90
24450;DHT22;13349;50.984;5.822;2023-05-10T10:30:39;16.10;99.90
24450;DHT22;13349;50.984;5.822;2023-05-10T10:33:15;16.00;99.90
24450;DHT22;13349;50.984;5.822;2023-05-10T10:35:44;15.80;99.90
24450;DHT22;13349;50.984;5.822;2023-05-10T10:38:13;15.60;99.90
24450;DHT22;13349;50.984;5.822;2023-05-10T10:40:40;15.60;99.90
24450;DHT22;13349;50.984;5.822;2023-05-10T10:48:32;15.30;42.70
24450;DHT22;13349;50.984;5.822;2023-05-10T10:50:59;15.50;1.00
24450;DHT22;13349;50.984;5.822;2023-05-10T10:53:28;15.70;1.00
24450;DHT22;13349;50.984;5.822;2023-05-10T10:56:02;15.80;99.90
24450;DHT22;13349;50.984;5.822;2023-05-10T10:58:31;15.90;99.90
24450;DHT22;13349;50.984;5.822;2023-05-10T11:01:11;16.30;1.00
24450;DHT22;13349;50.984;5.822;2023-05-10T11:03:39;16.20;1.00
24450;DHT22;13349;50.984;5.822;2023-05-10T11:06:06;16.10;99.90
24450;DHT22;13349;50.984;5.822;2023-05-10T11:08:41;16.00;1.00
24450;DHT22;13349;50.984;5.822;2023-05-10T11:11:08;15.90;99.90
24450;DHT22;13349;50.984;5.822;2023-05-10T11:13:39;16.00;99.90
24450;DHT22;13349;50.984;5.822;2023-05-10T11:16:10;16.20;1.00
24450;DHT22;13349;50.984;5.822;2023-05-10T11:18:37;16.10;1.00
24450;DHT22;13349;50.984;5.822;2023-05-10T11:21:04;16.10;1.00
24450;DHT22;13349;50.984;5.822;2023-05-10T11:23:31;16.40;1.00
24450;DHT22;13349;50.984;5.822;2023-05-10T11:26:00;16.70;1.00
24450;DHT22;13349;50.984;5.822;2023-05-10T11:28:27;16.80;1.00
24450;DHT22;13349;50.984;5.822;2023-05-10T11:30:54;17.20;99.90
24450;DHT22;13349;50.984;5.822;2023-05-10T11:33:22;17.30;99.90
24450;DHT22;13349;50.984;5.822;2023-05-10T11:35:49;17.40;1.00
24450;DHT22;13349;50.984;5.822;2023-05-10T11:38:16;17.40;1.00
24450;DHT22;13349;50.984;5.822;2023-05-10T11:40:43;17.30;1.00
24450;DHT22;13349;50.984;5.822;2023-05-10T11:43:11;17.20;99.90
24450;DHT22;13349;50.984;5.822;2023-05-10T11:45:39;17.10;99.90
24450;DHT22;13349;50.984;5.822;2023-05-10T11:48:06;16.70;99.90
24450;DHT22;13349;50.984;5.822;2023-05-10T11:50:34;17.00;99.90
24450;DHT22;13349;50.984;5.822;2023-05-10T11:53:01;17.20;99.90
24450;DHT22;13349;50.984;5.822;2023-05-10T11:55:27;17.40;59.80
24450;DHT22;13349;50.984;5.822;2023-05-10T11:57:59;17.10;1.00
24450;DHT22;13349;50.984;5.822;2023-05-10T12:00:28;17.00;1.00
24450;DHT22;13349;50.984;5.822;2023-05-10T12:02:55;17.10;1.00
24450;DHT22;13349;50.984;5.822;2023-05-10T12:05:22;17.40;1.00
24450;DHT22;13349;50.984;5.822;2023-05-10T12:07:49;17.50;1.00
24450;DHT22;13349;50.984;5.822;2023-05-10T12:10:17;17.90;1.00
24450;DHT22;13349;50.984;5.822;2023-05-10T12:12:51;17.20;1.00
24450;DHT22;13349;50.984;5.822;2023-05-10T12:15:19;16.60;1.00
24450;DHT22;13349;50.984;5.822;2023-05-10T12:17:48;16.70;1.00
24450;DHT22;13349;50.984;5.822;2023-05-10T12:20:16;16.80;1.00
24450;DHT22;13349;50.984;5.822;2023-05-10T12:22:43;17.00;1.00
24450;DHT22;13349;50.984;5.822;2023-05-10T12:25:10;16.90;1.00
24450;DHT22;13349;50.984;5.822;2023-05-10T12:27:37;17.00;1.00
24450;DHT22;13349;50.984;5.822;2023-05-10T12:30:05;16.80;1.00
24450;DHT22;13349;50.984;5.822;2023-05-10T12:32:38;16.90;1.00
24450;DHT22;13349;50.984;5.822;2023-05-10T12:35:07;17.10;1.00
24450;DHT22;13349;50.984;5.822;2023-05-10T12:37:35;17.30;1.00
24450;DHT22;13349;50.984;5.822;2023-05-10T12:40:08;17.30;1.00
24450;DHT22;13349;50.984;5.822;2023-05-10T12:42:36;17.80;1.00
24450;DHT22;13349;50.984;5.822;2023-05-10T12:45:03;18.00;99.90
24450;DHT22;13349;50.984;5.822;2023-05-10T12:47:30;17.60;99.90
24450;DHT22;13349;50.984;5.822;2023-05-10T12:49:57;17.60;99.90
24450;DHT22;13349;50.984;5.822;2023-05-10T12:52:26;17.80;99.90
24450;DHT22;13349;50.984;5.822;2023-05-10T12:54:53;17.60;99.90
24450;DHT22;13349;50.984;5.822;2023-05-10T12:57:20;18.20;99.90
24450;DHT22;13349;50.984;5.822;2023-05-10T12:59:47;18.70;1.00
24450;DHT22;13349;50.984;5.822;2023-05-10T13:02:14;18.90;1.00
24450;DHT22;13349;50.984;5.822;2023-05-10T13:04:43;18.70;1.00
24450;DHT22;13349;50.984;5.822;2023-05-10T13:07:11;18.40;1.00
24450;DHT22;13349;50.984;5.822;2023-05-10T13:09:40;18.70;1.00
24450;DHT22;13349;50.984;5.822;2023-05-10T13:12:07;18.30;1.00
24450;DHT22;13349;50.984;5.822;2023-05-10T13:14:34;18.30;1.00
24450;DHT22;13349;50.984;5.822;2023-05-10T13:17:01;17.60;1.00
24450;DHT22;13349;50.984;5.822;2023-05-10T13:19:27;17.50;1.00
24450;DHT22;13349;50.984;5.822;2023-05-10T13:21:54;17.40;1.00
24450;DHT22;13349;50.984;5.822;2023-05-10T13:24:21;17.00;1.00
24450;DHT22;13349;50.984;5.822;2023-05-10T13:26:50;16.80;45.10
24450;DHT22;13349;50.984;5.822;2023-05-10T13:29:17;17.10;5.20
24450;DHT22;13349;50.984;5.822;2023-05-10T13:31:44;17.20;97.70
24450;DHT22;13349;50.984;5.822;2023-05-10T13:34:11;17.10;1.00
24450;DHT22;13349;50.984;5.822;2023-05-10T13:36:38;17.20;23.60
24450;DHT22;13349;50.984;5.822;2023-05-10T13:39:05;16.90;99.90
24450;DHT22;13349;50.984;5.822;2023-05-10T13:41:32;16.80;99.90
24450;DHT22;13349;50.984;5.822;2023-05-10T13:44:01;16.90;99.90
24450;DHT22;13349;50.984;5.822;2023-05-10T13:46:28;16.90;99.90
24450;DHT22;13349;50.984;5.822;2023-05-10T13:48:55;17.10;99.90
24450;DHT22;13349;50.984;5.822;2023-05-10T13:51:22;17.20;99.90
24450;DHT22;13349;50.984;5.822;2023-05-10T13:53:49;17.00;99.90
24450;DHT22;13349;50.984;5.822;2023-05-10T13:56:16;16.80;99.90
24450;DHT22;13349;50.984;5.822;2023-05-10T13:58:43;16.40;99.90
24450;DHT22;13349;50.984;5.822;2023-05-10T14:01:11;16.30;1.00
24450;DHT22;13349;50.984;5.822;2023-05-10T14:03:38;16.50;1.00
24450;DHT22;13349;50.984;5.822;2023-05-10T14:06:07;16.70;1.00
24450;DHT22;13349;50.984;5.822;2023-05-10T14:08:34;16.80;1.00
24450;DHT22;13349;50.984;5.822;2023-05-10T14:11:02;16.90;1.00
24450;DHT22;13349;50.984;5.822;2023-05-10T14:13:29;17.20;99.90
24450;DHT22;13349;50.984;5.822;2023-05-10T14:15:56;17.20;99.90
24450;DHT22;13349;50.984;5.822;2023-05-10T14:18:25;16.80;1.00
24450;DHT22;13349;50.984;5.822;2023-05-10T14:20:52;16.80;1.00
24450;DHT22;13349;50.984;5.822;2023-05-10T14:23:19;17.00;1.00
24450;DHT22;13349;50.984;5.822;2023-05-10T14:25:49;16.90;1.00
24450;DHT22;13349;50.984;5.822;2023-05-10T14:28:16;16.60;1.00
24450;DHT22;13349;50.984;5.822;2023-05-10T14:30:43;16.60;1.00
24450;DHT22;13349;50.984;5.822;2023-05-10T14:33:10;16.40;1.00
24450;DHT22;13349;50.984;5.822;2023-05-10T14:35:39;16.20;1.00
24450;DHT22;13349;50.984;5.822;2023-05-10T14:38:06;16.00;1.00
24450;DHT22;13349;50.984;5.822;2023-05-10T14:40:32;15.90;1.00
24450;DHT22;13349;50.984;5.822;2023-05-10T14:42:59;15.90;1.00
24450;DHT22;13349;50.984;5.822;2023-05-10T14:45:26;15.70;1.00
24450;DHT22;13349;50.984;5.822;2023-05-10T14:47:53;15.80;1.00
24450;DHT22;13349;50.984;5.822;2023-05-10T14:50:20;15.70;1.00
24450;DHT22;13349;50.984;5.822;2023-05-10T14:52:48;15.80;99.90
24450;DHT22;13349;50.984;5.822;2023-05-10T14:55:15;15.70;99.90
24450;DHT22;13349;50.984;5.822;2023-05-10T14:57:42;15.60;99.90
24450;DHT22;13349;50.984;5.822;2023-05-10T15:00:12;15.40;1.00
24450;DHT22;13349;50.984;5.822;2023-05-10T15:02:40;15.40;24.90
24450;DHT22;13349;50.984;5.822;2023-05-10T15:05:07;15.20;99.90
24450;DHT22;13349;50.984;5.822;2023-05-10T15:07:34;15.00;99.90
24450;DHT22;13349;50.984;5.822;2023-05-10T15:10:03;15.00;1.00
24450;DHT22;13349;50.984;5.822;2023-05-10T15:12:30;15.00;99.90
24450;DHT22;13349;50.984;5.822;2023-05-10T15:14:57;14.80;1.00
24450;DHT22;13349;50.984;5.822;2023-05-10T15:17:24;14.80;1.00
24450;DHT22;13349;50.984;5.822;2023-05-10T15:19:51;14.90;1.00
24450;DHT22;13349;50.984;5.822;2023-05-10T15:22:18;14.90;99.90
24450;DHT22;13349;50.984;5.822;2023-05-10T15:24:46;14.80;1.00
24450;DHT22;13349;50.984;5.822;2023-05-10T15:27:14;14.80;99.90
24450;DHT22;13349;50.984;5.822;2023-05-10T15:29:41;14.90;99.90
24450;DHT22;13349;50.984;5.822;2023-05-10T15:32:08;15.10;1.00
24450;DHT22;13349;50.984;5.822;2023-05-10T15:34:35;15.00;99.90
24450;DHT22;13349;50.984;5.822;2023-05-10T15:37:02;14.90;99.90
24450;DHT22;13349;50.984;5.822;2023-05-10T15:39:29;15.00;99.90
24450;DHT22;13349;50.984;5.822;2023-05-10T15:41:56;14.90;99.90
24450;DHT22;13349;50.984;5.822;2023-05-10T15:44:24;14.90;83.50
24450;DHT22;13349;50.984;5.822;2023-05-10T15:46:51;14.90;1.00
24450;DHT22;13349;50.984;5.822;2023-05-10T15:49:18;14.90;1.00